Dresden, NY (14441)

12:33 AM EDT on August 05, 2015 (GMT -0400)
Dresden | | Change Station
CLOSE
Current Station
Personal Weather Station
Location: Penn Yan, NY
Elevation: 636 ft
Nearby Weather Stations

Elev 636 ft 42.71 °N, 76.97 °W | Updated 7 seconds ago

Overcast
Overcast
66.1 °F
Feels Like 66.1 °F
N
5.0
Wind Variable Wind from SW
Gusts 6.0 mph

Today
High -- | Low -- °F
--% Chance of Precip.
Yesterday
High -- | Low -- °F
Precip. -- in
6:03 AM 8:23 PM
Waning Gibbous, 71% visible
Pressure 29.93 in
Visibility 10.0 miles
Clouds Few 7500 ft
Overcast 9500 ft
Dew Point 60 °F
Humidity 82%
Rainfall 0.00 in
Snow Depth Not available.
UV 0 out of 12
Pollen 6.80 out of 12
Air Quality Not available.
Flu Activity Not available.
METAR KPEO 050353Z AUTO 25007KT 10SM FEW075 OVC095 19/15 A2995 RMK AO2 RAB0258E45 SLP135 P0001 T01940150

More Conditions Fewer Conditions

Pressure 29.93 in
Visibility 10.0 miles
Clouds Few 7500 ft
Overcast 9500 ft
Dew Point 60 °F
Humidity 82%
Rainfall 0.00 in
Snow Depth Not available.
UV 0 out of 12
Pollen 6.80 out of 12
Air Quality Not available.
Flu Activity Not available.
METAR KPEO 050353Z AUTO 25007KT 10SM FEW075 OVC095 19/15 A2995 RMK AO2 RAB0258E45 SLP135 P0001 T01940150

More Conditions Fewer Conditions

10-Day Weather Forecast

×

Almanac

Astronomy

Aug. 05, 2015 Rise Set
Actual Time
Civil Twilight
Nautical Twilight
Astronomical Twilight
Moon
Length of Visible Light
Length of Day
Tomorrow will be .
, % of the Moon is Illuminated

Today's Extremes

State Highs State Lows

Community

WunderPhotos

Upload Photos

1,844,094 photos uploaded!

WunderBlogs® & News

Nearby

Air Quality

  Air Quality AQ Index Pollutant
Not available.

Snow Depth

Station Depth Elevation

Earthquake Activity

City Distance Mag. Time & Date
Minimum magnitude displayed is 2.5.

Coastal Water Temperatures

Place Temperature

Stations

Nearby Weather Stations

Station Location Temp. Windchill Dew Point Humidity Wind Precip. Elev Updated Type